Time;durP1;ratioP1;P1;durP2;ratioP2;P2;SDS_P1;SDS_P2;PMS_P1;PMS_P2;Temp;Humidity;BMP_temperature;BMP_pressure;BME280_temperature;BME280_humidity;BME280_pressure;Samples;Min_cycle;Max_cycle;Signal;HPM_P1;HPM_P2
2022/11/18 00:00:57;;;;;;;;;;;;;;;;;;5121243;28;19924;-82
2022/11/18 00:03:24;;;;;;;;;;;;;;;;;;5118611;28;19967;-83
2022/11/18 00:05:54;;;;;;;;;;;;;;;;;;5121940;28;19923;-83
2022/11/18 00:08:20;;;;;;;;;;;;;;;;;;5120594;28;20015;-84
2022/11/18 00:10:48;;;;;;;;;;;;;;;;;;5121743;28;19932;-83
2022/11/18 00:16:02;;;;;;;;;;;;;;;;;;5100886;28;19990;-83
2022/11/18 00:18:29;;;;;;;;;;;;;;;;;;5100378;28;19930;-82
2022/11/18 00:20:55;;;;;;;;;;;;;;;;;;5097916;28;19924;-80
2022/11/18 00:23:22;;;;;;;;;;;;;;;;;;5104527;28;19924;-82
2022/11/18 00:25:50;;;;;;;;;;;;;;;;;;5100522;28;20011;-82
2022/11/18 00:28:16;;;;;;;;;;;;;;;;;;5101979;28;19969;-83
2022/11/18 00:30:43;;;;;;;;;;;;;;;;;;5102787;28;19924;-82
2022/11/18 00:33:09;;;;;;;;;;;;;;;;;;5116457;28;20378;-83
2022/11/18 00:35:36;;;;;;;;;;;;;;;;;;5122528;28;19970;-83
2022/11/18 00:38:02;;;;;;;;;;;;;;;;;;5117770;28;19925;-81
2022/11/18 00:40:29;;;;;;;;;;;;;;;;;;5106839;28;19935;-83
2022/11/18 00:42:56;;;;;;;;;;;;;;;;;;5106344;28;19924;-84
2022/11/18 00:45:23;;;;;;;;;;;;;;;;;;5108992;28;20334;-84
2022/11/18 00:47:49;;;;;;;;;;;;;;;;;;5104199;28;19924;-84
2022/11/18 00:50:16;;;;;;;;;;;;;;;;;;5105727;28;20138;-82
2022/11/18 00:52:42;;;;;;;;;;;;;;;;;;5099032;28;19952;-84
2022/11/18 00:55:09;;;;;;;;;;;;;;;;;;5100814;28;19924;-84
2022/11/18 00:57:36;;;;;;;;;;;;;;;;;;5114666;28;19923;-84
2022/11/18 01:00:08;;;;;;;;;;;;;;;;;;5120779;28;19924;-84
2022/11/18 01:02:34;;;;;;;;;;;;;;;;;;5119874;28;19924;-84
2022/11/18 01:05:01;;;;;;;;;;;;;;;;;;5118111;28;19935;-82
2022/11/18 01:07:27;;;;;;;;;;;;;;;;;;5115607;28;19982;-82
2022/11/18 01:09:54;;;;;;;;;;;;;;;;;;5121138;28;19947;-84
2022/11/18 01:15:07;;;;;;;;;;;;;;;;;;5100279;28;19931;-84
2022/11/18 01:17:34;;;;;;;;;;;;;;;;;;5105724;28;19975;-83
2022/11/18 01:20:00;;;;;;;;;;;;;;;;;;5116653;28;20379;-82
2022/11/18 01:22:27;;;;;;;;;;;;;;;;;;5116724;28;20356;-82
2022/11/18 01:24:53;;;;;;;;;;;;;;;;;;5117881;28;19974;-82
2022/11/18 01:27:20;;;;;;;;;;;;;;;;;;5110100;28;19963;-83
2022/11/18 01:29:46;;;;;;;;;;;;;;;;;;5096553;28;19975;-82
2022/11/18 01:32:14;;;;;;;;;;;;;;;;;;5103098;28;20003;-82
2022/11/18 01:34:41;;;;;;;;;;;;;;;;;;5116107;28;19978;-82
2022/11/18 01:37:07;;;;;;;;;;;;;;;;;;5117212;28;20580;-82
2022/11/18 01:39:34;;;;;;;;;;;;;;;;;;5115515;28;19931;-83
2022/11/18 01:42:00;;;;;;;;;;;;;;;;;;5117126;28;20338;-82
2022/11/18 01:44:45;;;;;;;;;;;;;;;;;;5117140;28;19967;-83
2022/11/18 01:47:12;;;;;;;;;;;;;;;;;;5082815;28;19925;-83
2022/11/18 01:49:43;;;;;;;;;;;;;;;;;;5098016;28;19978;-82
2022/11/18 01:52:09;;;;;;;;;;;;;;;;;;5123475;28;19931;-82
2022/11/18 01:54:39;;;;;;;;;;;;;;;;;;5120874;28;19969;-82
2022/11/18 01:57:09;;;;;;;;;;;;;;;;;;5116258;28;20044;-82
2022/11/18 01:59:37;;;;;;;;;;;;;;;;;;5100657;28;19955;-83
2022/11/18 02:02:06;;;;;;;;;;;;;;;;;;5119267;28;19924;-82
2022/11/18 02:04:33;;;;;;;;;;;;;;;;;;5112887;22;19924;-62
2022/11/18 02:07:01;;;;;;;;;;;;;;;;;;5079935;28;19932;-62
2022/11/18 02:09:28;;;;;;;;;;;;;;;;;;5091865;28;19931;-62
2022/11/18 02:11:55;;;;;;;;;;;;;;;;;;5077690;28;19924;-63
2022/11/18 02:14:24;;;;;;;;;;;;;;;;;;5072232;28;19942;-62
2022/11/18 02:17:00;;;;;;;;;;;;;;;;;;5086200;28;19928;-63
2022/11/18 02:19:41;;;;;;;;;;;;;;;;;;5092607;28;19924;-63
2022/11/18 02:22:19;;;;;;;;;;;;;;;;;;5076806;28;19964;-63
2022/11/18 02:24:51;;;;;;;;;;;;;;;;;;5072359;28;19924;-62
2022/11/18 02:27:39;;;;;;;;;;;;;;;;;;5091082;28;19924;-63
2022/11/18 02:30:08;;;;;;;;;;;;;;;;;;5050257;28;19924;-63
2022/11/18 02:32:39;;;;;;;;;;;;;;;;;;5092307;28;19925;-63
2022/11/18 02:35:09;;;;;;;;;;;;;;;;;;5092735;28;20326;-62
2022/11/18 02:37:39;;;;;;;;;;;;;;;;;;5091249;28;19930;-62
2022/11/18 02:40:07;;;;;;;;;;;;;;;;;;5082296;28;19932;-61
2022/11/18 02:42:35;;;;;;;;;;;;;;;;;;5092148;28;20324;-62
2022/11/18 02:45:04;;;;;;;;;;;;;;;;;;5082814;28;20389;-63
2022/11/18 02:47:33;;;;;;;;;;;;;;;;;;5071921;28;19928;-62
2022/11/18 02:50:02;;;;;;;;;;;;;;;;;;5083180;28;19924;-62
2022/11/18 02:52:29;;;;;;;;;;;;;;;;;;5096169;28;20373;-63
2022/11/18 02:54:57;;;;;;;;;;;;;;;;;;5088337;28;19924;-59
2022/11/18 02:57:24;;;;;;;;;;;;;;;;;;5075658;28;19950;-60
2022/11/18 02:59:51;;;;;;;;;;;;;;;;;;5084059;28;19924;-61
2022/11/18 03:02:18;;;;;;;;;;;;;;;;;;5088318;28;19947;-60
2022/11/18 03:04:47;;;;;;;;;;;;;;;;;;5084908;28;20530;-58
2022/11/18 03:07:18;;;;;;;;;;;;;;;;;;5096003;28;20331;-59
2022/11/18 03:09:46;;;;;;;;;;;;;;;;;;5088057;28;19928;-59
2022/11/18 03:12:17;;;;;;;;;;;;;;;;;;5094017;28;19924;-60
2022/11/18 03:14:47;;;;;;;;;;;;;;;;;;5094207;28;19924;-58
2022/11/18 03:17:15;;;;;;;;;;;;;;;;;;5096093;28;19944;-60
2022/11/18 03:19:53;;;;;;;;;;;;;;;;;;5086961;28;19930;-61
2022/11/18 03:22:23;;;;;;;;;;;;;;;;;;5080121;28;19943;-64
2022/11/18 03:24:55;;;;;;;;;;;;;;;;;;5095608;28;19924;-65
2022/11/18 03:27:23;;;;;;;;;;;;;;;;;;5094446;28;19931;-64
2022/11/18 03:29:54;;;;;;;;;;;;;;;;;;5087691;28;19978;-65
2022/11/18 03:32:23;;;;;;;;;;;;;;;;;;5094259;28;19932;-65
2022/11/18 03:34:52;;;;;;;;;;;;;;;;;;5085922;28;19982;-64
2022/11/18 03:37:20;;;;;;;;;;;;;;;;;;5092058;28;19954;-66
2022/11/18 03:39:50;;;;;;;;;;;;;;;;;;5075100;28;19931;-65
2022/11/18 03:42:19;;;;;;;;;;;;;;;;;;5077422;28;20296;-64
2022/11/18 03:44:49;;;;;;;;;;;;;;;;;;5095185;28;20030;-65
2022/11/18 03:47:17;;;;;;;;;;;;;;;;;;5093271;28;19931;-65
2022/11/18 03:49:46;;;;;;;;;;;;;;;;;;5087453;28;20343;-65
2022/11/18 03:52:15;;;;;;;;;;;;;;;;;;5075754;28;19929;-65
2022/11/18 03:54:44;;;;;;;;;;;;;;;;;;5075173;28;19943;-65
2022/11/18 03:57:13;;;;;;;;;;;;;;;;;;5064299;28;19967;-64
2022/11/18 03:59:43;;;;;;;;;;;;;;;;;;5094369;28;19924;-64
2022/11/18 04:02:13;;;;;;;;;;;;;;;;;;5074900;28;20410;-65
2022/11/18 04:04:40;;;;;;;;;;;;;;;;;;5074401;28;19928;-65
2022/11/18 04:07:09;;;;;;;;;;;;;;;;;;5075096;28;20334;-65
2022/11/18 04:09:41;;;;;;;;;;;;;;;;;;5074689;28;20015;-65
2022/11/18 04:12:11;;;;;;;;;;;;;;;;;;5074736;28;19947;-65
2022/11/18 04:14:39;;;;;;;;;;;;;;;;;;5074979;28;19929;-62
2022/11/18 04:17:08;;;;;;;;;;;;;;;;;;5074118;28;19925;-62
2022/11/18 04:19:34;;;;;;;;;;;;;;;;;;5076647;28;20329;-61
2022/11/18 04:22:01;;;;;;;;;;;;;;;;;;5093612;28;19987;-63
2022/11/18 04:24:27;;;;;;;;;;;;;;;;;;5094599;28;19932;-62
2022/11/18 04:26:55;;;;;;;;;;;;;;;;;;5089169;28;19923;-63
2022/11/18 04:29:22;;;;;;;;;;;;;;;;;;5094164;28;19985;-62
2022/11/18 04:31:49;;;;;;;;;;;;;;;;;;5088455;28;20301;-62
2022/11/18 04:34:15;;;;;;;;;;;;;;;;;;5094579;28;19924;-62
2022/11/18 04:36:42;;;;;;;;;;;;;;;;;;5082713;28;19971;-63
2022/11/18 04:39:09;;;;;;;;;;;;;;;;;;5073874;28;19928;-62
2022/11/18 04:44:21;;;;;;;;;;;;;;;;;;5074251;28;19947;-62
2022/11/18 04:46:47;;;;;;;;;;;;;;;;;;5084790;28;20343;-61
2022/11/18 04:49:15;;;;;;;;;;;;;;;;;;5094064;28;19928;-63
2022/11/18 04:51:42;;;;;;;;;;;;;;;;;;5091340;28;20367;-62
2022/11/18 04:54:09;;;;;;;;;;;;;;;;;;5094444;28;20039;-61
2022/11/18 04:56:35;;;;;;;;;;;;;;;;;;5093445;28;20277;-63
2022/11/18 04:59:03;;;;;;;;;;;;;;;;;;5094183;28;19924;-61
2022/11/18 05:01:31;;;;;;;;;;;;;;;;;;5086602;28;19971;-63
2022/11/18 05:03:57;;;;;;;;;;;;;;;;;;5073477;28;19924;-62
2022/11/18 05:06:24;;;;;;;;;;;;;;;;;;5073307;28;19978;-63
2022/11/18 05:08:50;;;;;;;;;;;;;;;;;;5073693;28;19985;-62
2022/11/18 05:14:01;;;;;;;;;;;;;;;;;;5073602;28;19939;-62
2022/11/18 05:16:28;;;;;;;;;;;;;;;;;;5078098;28;20377;-62
2022/11/18 05:18:56;;;;;;;;;;;;;;;;;;5093258;28;19925;-63
2022/11/18 05:21:23;;;;;;;;;;;;;;;;;;5091749;28;19924;-63
2022/11/18 05:23:49;;;;;;;;;;;;;;;;;;5073721;28;19970;-62
2022/11/18 05:26:16;;;;;;;;;;;;;;;;;;5085728;28;20299;-61
2022/11/18 05:28:42;;;;;;;;;;;;;;;;;;5093331;28;20006;-61
2022/11/18 05:31:10;;;;;;;;;;;;;;;;;;5081745;28;19928;-62
2022/11/18 05:33:36;;;;;;;;;;;;;;;;;;5088714;28;19924;-64
2022/11/18 05:36:07;;;;;;;;;;;;;;;;;;5083325;28;20308;-63
2022/11/18 05:38:34;;;;;;;;;;;;;;;;;;5073048;28;20332;-63
2022/11/18 05:41:01;;;;;;;;;;;;;;;;;;5081303;28;19924;-61
2022/11/18 05:43:27;;;;;;;;;;;;;;;;;;5081225;28;20385;-62
2022/11/18 05:45:53;;;;;;;;;;;;;;;;;;5100303;22;19924;-57
2022/11/18 05:48:20;;;;;;;;;;;;;;;;;;5112733;28;19931;-57
2022/11/18 05:50:47;;;;;;;;;;;;;;;;;;5107136;28;20342;-56
2022/11/18 05:53:16;;;;;;;;;;;;;;;;;;5099786;28;19928;-56
2022/11/18 05:55:45;;;;;;;;;;;;;;;;;;5108064;28;19928;-58
2022/11/18 05:58:11;;;;;;;;;;;;;;;;;;5093042;28;19957;-57
2022/11/18 06:00:38;;;;;;;;;;;;;;;;;;5092892;28;19928;-56
2022/11/18 06:03:09;;;;;;;;;;;;;;;;;;5092837;28;20023;-58
2022/11/18 06:05:35;;;;;;;;;;;;;;;;;;5095013;28;19943;-58
2022/11/18 06:08:02;;;;;;;;;;;;;;;;;;5112277;28;19973;-55
2022/11/18 06:10:35;;;;;;;;;;;;;;;;;;5111421;28;19924;-57
2022/11/18 06:13:04;;;;;;;;;;;;;;;;;;5080294;28;19927;-58
2022/11/18 06:15:32;;;;;;;;;;;;;;;;;;5107611;28;19947;-57
2022/11/18 06:18:00;;;;;;;;;;;;;;;;;;5092626;28;19950;-57
2022/11/18 06:20:27;;;;;;;;;;;;;;;;;;5096481;28;19924;-56
2022/11/18 06:22:54;;;;;;;;;;;;;;;;;;5112495;28;20384;-53
2022/11/18 06:25:21;;;;;;;;;;;;;;;;;;5116306;28;19924;-58
2022/11/18 06:27:50;;;;;;;;;;;;;;;;;;5117141;28;19924;-58
2022/11/18 06:30:16;;;;;;;;;;;;;;;;;;5101446;28;19928;-56
2022/11/18 06:32:43;;;;;;;;;;;;;;;;;;5108627;28;20384;-56
2022/11/18 06:35:10;;;;;;;;;;;;;;;;;;5119899;28;19923;-54
2022/11/18 06:37:36;;;;;;;;;;;;;;;;;;5119393;28;19924;-56
2022/11/18 06:40:03;;;;;;;;;;;;;;;;;;5118578;28;19924;-56
2022/11/18 06:45:20;;;;;;;;;;;;;;;;;;5077294;28;20419;-56
2022/11/18 06:47:47;;;;;;;;;;;;;;;;;;5119115;28;19923;-56
2022/11/18 06:50:13;;;;;;;;;;;;;;;;;;5117580;28;19931;-55
2022/11/18 06:52:40;;;;;;;;;;;;;;;;;;5118899;28;19981;-56
2022/11/18 06:55:07;;;;;;;;;;;;;;;;;;5104259;28;19928;-57
2022/11/18 06:57:33;;;;;;;;;;;;;;;;;;5099777;28;20296;-56
2022/11/18 07:00:00;;;;;;;;;;;;;;;;;;5112324;28;19923;-55
2022/11/18 07:02:28;;;;;;;;;;;;;;;;;;5117394;28;19924;-55
2022/11/18 07:04:54;;;;;;;;;;;;;;;;;;5107085;28;19924;-56
2022/11/18 07:07:21;;;;;;;;;;;;;;;;;;5098580;28;19928;-56
2022/11/18 07:09:48;;;;;;;;;;;;;;;;;;5100543;28;19977;-56
2022/11/18 07:12:14;;;;;;;;;;;;;;;;;;5099569;28;19929;-56
2022/11/18 07:14:40;;;;;;;;;;;;;;;;;;5099008;28;19924;-56
2022/11/18 07:17:07;;;;;;;;;;;;;;;;;;5106638;28;19977;-57
2022/11/18 07:19:35;;;;;;;;;;;;;;;;;;5118923;28;19928;-57
2022/11/18 07:22:01;;;;;;;;;;;;;;;;;;5117389;28;19932;-57
2022/11/18 07:24:28;;;;;;;;;;;;;;;;;;5098929;28;19970;-57
2022/11/18 07:26:55;;;;;;;;;;;;;;;;;;5098050;28;19970;-57
2022/11/18 07:29:21;;;;;;;;;;;;;;;;;;5098754;28;19924;-56
2022/11/18 07:31:48;;;;;;;;;;;;;;;;;;5097910;28;19978;-55
2022/11/18 07:34:14;;;;;;;;;;;;;;;;;;5116654;28;19977;-53
2022/11/18 07:36:42;;;;;;;;;;;;;;;;;;5113923;28;20468;-55
2022/11/18 07:39:09;;;;;;;;;;;;;;;;;;5105110;28;20014;-56
2022/11/18 07:41:36;;;;;;;;;;;;;;;;;;5114844;28;19928;-57
2022/11/18 07:44:03;;;;;;;;;;;;;;;;;;5113985;28;19924;-56
2022/11/18 07:46:31;;;;;;;;;;;;;;;;;;5115581;28;20432;-55
2022/11/18 07:48:58;;;;;;;;;;;;;;;;;;5100382;28;19954;-58
2022/11/18 07:51:26;;;;;;;;;;;;;;;;;;5094906;28;19924;-56
2022/11/18 07:53:54;;;;;;;;;;;;;;;;;;5107293;28;19923;-56
2022/11/18 07:56:20;;;;;;;;;;;;;;;;;;5116280;28;19969;-57
2022/11/18 07:58:47;;;;;;;;;;;;;;;;;;5103494;28;19924;-57
2022/11/18 08:01:14;;;;;;;;;;;;;;;;;;5094560;28;19934;-57
2022/11/18 08:03:41;;;;;;;;;;;;;;;;;;5093752;28;19990;-57
2022/11/18 08:06:08;;;;;;;;;;;;;;;;;;5108277;28;20421;-56
2022/11/18 08:08:35;;;;;;;;;;;;;;;;;;5103368;28;20012;-57
2022/11/18 08:11:04;;;;;;;;;;;;;;;;;;5094254;28;19954;-56
2022/11/18 08:13:31;;;;;;;;;;;;;;;;;;5098787;28;19953;-57
2022/11/18 08:15:58;;;;;;;;;;;;;;;;;;5110878;28;19924;-57
2022/11/18 08:18:25;;;;;;;;;;;;;;;;;;5106202;28;20384;-57
2022/11/18 08:20:51;;;;;;;;;;;;;;;;;;5092463;28;19933;-58
2022/11/18 08:23:18;;;;;;;;;;;;;;;;;;5097383;28;19924;-58
2022/11/18 08:25:45;;;;;;;;;;;;;;;;;;5111413;28;20065;-57
2022/11/18 08:28:14;;;;;;;;;;;;;;;;;;5108635;28;19931;-58
2022/11/18 08:30:40;;;;;;;;;;;;;;;;;;5092323;28;19928;-57
2022/11/18 08:33:07;;;;;;;;;;;;;;;;;;5094402;28;19958;-58
2022/11/18 08:35:34;;;;;;;;;;;;;;;;;;5112688;28;20346;-57
2022/11/18 08:38:00;;;;;;;;;;;;;;;;;;5106935;28;19925;-55
2022/11/18 08:40:27;;;;;;;;;;;;;;;;;;5109817;28;19931;-57
2022/11/18 08:42:53;;;;;;;;;;;;;;;;;;5112141;28;19928;-57
2022/11/18 08:45:22;;;;;;;;;;;;;;;;;;5091844;28;20412;-57
2022/11/18 08:47:48;;;;;;;;;;;;;;;;;;5091061;28;20018;-55
2022/11/18 08:50:15;;;;;;;;;;;;;;;;;;5091717;28;19928;-57
2022/11/18 08:52:41;;;;;;;;;;;;;;;;;;5091706;28;19924;-57
2022/11/18 08:55:08;;;;;;;;;;;;;;;;;;5109303;28;19924;-58
2022/11/18 08:57:35;;;;;;;;;;;;;;;;;;5098525;28;19954;-57
2022/11/18 09:00:01;;;;;;;;;;;;;;;;;;5109270;28;19930;-57
2022/11/18 09:02:29;;;;;;;;;;;;;;;;;;5099321;28;19924;-57
2022/11/18 09:04:56;;;;;;;;;;;;;;;;;;5091984;28;20322;-58
2022/11/18 09:07:22;;;;;;;;;;;;;;;;;;5104250;28;19932;-57
2022/11/18 09:09:49;;;;;;;;;;;;;;;;;;5101552;28;19924;-66
2022/11/18 09:12:16;;;;;;;;;;;;;;;;;;5102103;28;19924;-56
2022/11/18 09:14:43;;;;;;;;;;;;;;;;;;5112543;28;19928;-65
2022/11/18 09:17:10;;;;;;;;;;;;;;;;;;5104462;28;19924;-68
2022/11/18 09:19:38;;;;;;;;;;;;;;;;;;5103319;28;20365;-63
2022/11/18 09:22:04;;;;;;;;;;;;;;;;;;5112157;28;19977;-63
2022/11/18 09:24:31;;;;;;;;;;;;;;;;;;5111842;28;19923;-59
2022/11/18 09:26:57;;;;;;;;;;;;;;;;;;5107380;28;19968;-58
2022/11/18 09:29:25;;;;;;;;;;;;;;;;;;5091244;28;19932;-58
2022/11/18 09:31:51;;;;;;;;;;;;;;;;;;5091443;28;19967;-57
2022/11/18 09:34:18;;;;;;;;;;;;;;;;;;5091896;28;19924;-54
2022/11/18 09:36:46;;;;;;;;;;;;;;;;;;5091663;28;19924;-58
2022/11/18 09:39:13;;;;;;;;;;;;;;;;;;5091161;28;19924;-59
2022/11/18 09:41:46;;;;;;;;;;;;;;;;;;5091106;28;19924;-57
2022/11/18 09:44:27;;;;;;;;;;;;;;;;;;5091209;28;19924;-58
2022/11/18 09:47:02;;;;;;;;;;;;;;;;;;5091589;28;19982;-57
2022/11/18 09:49:31;;;;;;;;;;;;;;;;;;5090960;28;19924;-59
2022/11/18 09:52:01;;;;;;;;;;;;;;;;;;5091431;28;19928;-59
2022/11/18 09:54:30;;;;;;;;;;;;;;;;;;5091514;28;19931;-59
2022/11/18 09:56:57;;;;;;;;;;;;;;;;;;5090894;28;19977;-59
2022/11/18 09:59:24;;;;;;;;;;;;;;;;;;5090536;28;20376;-58
2022/11/18 10:01:52;;;;;;;;;;;;;;;;;;5091189;28;19954;-58
2022/11/18 10:04:20;;;;;;;;;;;;;;;;;;5091068;28;19978;-58
2022/11/18 10:06:47;;;;;;;;;;;;;;;;;;5090964;28;19930;-55
2022/11/18 10:09:29;;;;;;;;;;;;;;;;;;5090526;28;19989;-59
2022/11/18 10:12:02;;;;;;;;;;;;;;;;;;5091237;28;19924;-59
2022/11/18 10:14:35;;;;;;;;;;;;;;;;;;5090873;28;19924;-58
2022/11/18 10:17:07;;;;;;;;;;;;;;;;;;5091141;28;19924;-57
2022/11/18 10:19:37;;;;;;;;;;;;;;;;;;5090482;28;19932;-58
2022/11/18 10:22:11;;;;;;;;;;;;;;;;;;5090764;28;19927;-59
2022/11/18 10:24:42;;;;;;;;;;;;;;;;;;5090763;28;19924;-56
2022/11/18 10:27:10;;;;;;;;;;;;;;;;;;5091085;28;19924;-58
2022/11/18 10:29:36;;;;;;;;;;;;;;;;;;5090420;28;19924;-58
2022/11/18 10:32:04;;;;;;;;;;;;;;;;;;5090752;28;19924;-59
2022/11/18 10:34:31;;;;;;;;;;;;;;;;;;5090878;28;19924;-58
2022/11/18 10:37:01;;;;;;;;;;;;;;;;;;5091214;28;19931;-59
2022/11/18 10:39:27;;;;;;;;;;;;;;;;;;5090441;28;19931;-58
2022/11/18 10:41:57;;;;;;;;;;;;;;;;;;5091953;28;20282;-58
2022/11/18 10:44:31;;;;;;;;;;;;;;;;;;5110485;28;19924;-58
2022/11/18 10:47:13;;;;;;;;;;;;;;;;;;5110714;28;19977;-57
2022/11/18 10:49:39;;;;;;;;;;;;;;;;;;5097717;28;19924;-59
2022/11/18 10:52:09;;;;;;;;;;;;;;;;;;5090192;28;20360;-56
2022/11/18 10:54:35;;;;;;;;;;;;;;;;;;5090116;28;20002;-58
2022/11/18 10:57:05;;;;;;;;;;;;;;;;;;5090405;28;20288;-58
2022/11/18 10:59:33;;;;;;;;;;;;;;;;;;5092497;28;19932;-57
2022/11/18 11:02:01;;;;;;;;;;;;;;;;;;5110844;28;19924;-59
2022/11/18 11:04:28;;;;;;;;;;;;;;;;;;5093154;28;20007;-59
2022/11/18 11:06:57;;;;;;;;;;;;;;;;;;5091470;28;19989;-56
2022/11/18 11:09:26;;;;;;;;;;;;;;;;;;5103371;28;20007;-58
2022/11/18 11:11:56;;;;;;;;;;;;;;;;;;5092928;28;19950;-57
2022/11/18 11:14:26;;;;;;;;;;;;;;;;;;5097172;28;20422;-58
2022/11/18 11:17:02;;;;;;;;;;;;;;;;;;5100361;28;20332;-56
2022/11/18 11:19:33;;;;;;;;;;;;;;;;;;5111834;28;19924;-56
2022/11/18 11:21:59;;;;;;;;;;;;;;;;;;5101525;28;19927;-57
2022/11/18 11:24:26;;;;;;;;;;;;;;;;;;5104135;28;20349;-55
2022/11/18 11:26:55;;;;;;;;;;;;;;;;;;5114375;28;19946;-57
2022/11/18 11:29:33;;;;;;;;;;;;;;;;;;5114087;28;19984;-57
2022/11/18 11:32:05;;;;;;;;;;;;;;;;;;5114134;28;19924;-55
2022/11/18 11:34:34;;;;;;;;;;;;;;;;;;5114151;28;20349;-55
2022/11/18 11:37:04;;;;;;;;;;;;;;;;;;5114475;28;19924;-57
2022/11/18 11:39:41;;;;;;;;;;;;;;;;;;5113605;28;19934;-55
2022/11/18 11:42:13;;;;;;;;;;;;;;;;;;5114182;28;19928;-55
2022/11/18 11:44:46;;;;;;;;;;;;;;;;;;5113625;28;19976;-56
2022/11/18 11:50:12;;;;;;;;;;;;;;;;;;5113853;28;19930;-57
2022/11/18 11:52:42;;;;;;;;;;;;;;;;;;5106813;28;19935;-57
2022/11/18 11:55:16;;;;;;;;;;;;;;;;;;5093506;28;19924;-58
2022/11/18 11:57:51;;;;;;;;;;;;;;;;;;5093422;28;20432;-54
2022/11/18 12:00:19;;;;;;;;;;;;;;;;;;5092927;28;19928;-57
2022/11/18 12:02:56;;;;;;;;;;;;;;;;;;5093149;28;19932;-56
2022/11/18 12:05:25;;;;;;;;;;;;;;;;;;5094218;28;19939;-56
2022/11/18 12:07:53;;;;;;;;;;;;;;;;;;5093454;28;19964;-57
2022/11/18 12:10:32;;;;;;;;;;;;;;;;;;5092409;28;19977;-54
2022/11/18 12:13:07;;;;;;;;;;;;;;;;;;5095665;28;19947;-52
2022/11/18 12:15:48;;;;;;;;;;;;;;;;;;5113030;28;19958;-55
2022/11/18 12:18:19;;;;;;;;;;;;;;;;;;5108712;28;20338;-53
2022/11/18 12:20:47;;;;;;;;;;;;;;;;;;5093139;28;19928;-56
2022/11/18 12:23:18;;;;;;;;;;;;;;;;;;5095751;28;19931;-56
2022/11/18 12:25:52;;;;;;;;;;;;;;;;;;5113319;28;19928;-55
2022/11/18 12:28:23;;;;;;;;;;;;;;;;;;5112736;28;19934;-56
2022/11/18 12:30:50;;;;;;;;;;;;;;;;;;5113228;28;19931;-56
2022/11/18 12:33:18;;;;;;;;;;;;;;;;;;5110923;28;19958;-55
2022/11/18 12:35:47;;;;;;;;;;;;;;;;;;5103703;28;19969;-57
2022/11/18 12:38:28;;;;;;;;;;;;;;;;;;5109731;28;19932;-57
2022/11/18 12:40:54;;;;;;;;;;;;;;;;;;5092380;28;20384;-57
2022/11/18 12:43:48;;;;;;;;;;;;;;;;;;5095128;28;20338;-57
2022/11/18 12:46:33;;;;;;;;;;;;;;;;;;5112741;28;19923;-62
2022/11/18 12:49:27;;;;;;;;;;;;;;;;;;5111310;28;19933;-57
2022/11/18 12:51:55;;;;;;;;;;;;;;;;;;5112618;28;19930;-63
2022/11/18 12:54:27;;;;;;;;;;;;;;;;;;5102597;28;19947;-60
2022/11/18 12:56:54;;;;;;;;;;;;;;;;;;5104184;28;19928;-57
2022/11/18 12:59:26;;;;;;;;;;;;;;;;;;5102401;28;19928;-50
2022/11/18 13:02:01;;;;;;;;;;;;;;;;;;5091870;28;19928;-50
2022/11/18 13:04:29;;;;;;;;;;;;;;;;;;5101230;28;19924;-51
2022/11/18 13:06:58;;;;;;;;;;;;;;;;;;5111324;28;20350;-49
2022/11/18 13:09:26;;;;;;;;;;;;;;;;;;5102410;28;19947;-51
2022/11/18 13:11:54;;;;;;;;;;;;;;;;;;5091207;28;19928;-51
2022/11/18 13:20:18;;;;;;;;;;;;;;;;;;5109941;28;20341;-53
2022/11/18 13:25:33;;;;;;;;;;;;;;;;;;5094434;28;19985;-50
2022/11/18 13:28:05;;;;;;;;;;;;;;;;;;5100832;28;19923;-50
2022/11/18 13:30:33;;;;;;;;;;;;;;;;;;5111492;28;19928;-51
2022/11/18 13:33:00;;;;;;;;;;;;;;;;;;5102257;28;20030;-49
2022/11/18 13:35:28;;;;;;;;;;;;;;;;;;5090463;28;20369;-52
2022/11/18 13:37:56;;;;;;;;;;;;;;;;;;5091525;28;19938;-63
2022/11/18 13:40:24;;;;;;;;;;;;;;;;;;5091874;28;19963;-61
2022/11/18 13:42:51;;;;;;;;;;;;;;;;;;5097847;28;20518;-61
2022/11/18 13:45:18;;;;;;;;;;;;;;;;;;5111157;28;20022;-53
2022/11/18 13:47:46;;;;;;;;;;;;;;;;;;5106497;28;19934;-57
2022/11/18 13:50:17;;;;;;;;;;;;;;;;;;5092081;28;19971;-50
2022/11/18 13:52:47;;;;;;;;;;;;;;;;;;5094536;28;19931;-49
2022/11/18 13:55:16;;;;;;;;;;;;;;;;;;5111928;28;19924;-57
2022/11/18 13:57:46;;;;;;;;;;;;;;;;;;5109320;28;19963;-55
2022/11/18 14:00:20;;;;;;;;;;;;;;;;;;5101707;28;19924;-55
2022/11/18 14:02:50;;;;;;;;;;;;;;;;;;5111134;28;19928;-55
2022/11/18 14:05:18;;;;;;;;;;;;;;;;;;5109738;28;20172;-53
2022/11/18 14:07:55;;;;;;;;;;;;;;;;;;5100345;28;20380;-54
2022/11/18 14:10:29;;;;;;;;;;;;;;;;;;5105075;28;19935;-55
2022/11/18 14:12:57;;;;;;;;;;;;;;;;;;5104584;28;19968;-54
2022/11/18 14:15:33;;;;;;;;;;;;;;;;;;5109590;28;19927;-51
2022/11/18 14:18:01;;;;;;;;;;;;;;;;;;5104128;28;19984;-51
2022/11/18 14:20:29;;;;;;;;;;;;;;;;;;5096947;28;20361;-53
2022/11/18 14:22:58;;;;;;;;;;;;;;;;;;5092098;28;20347;-54
2022/11/18 14:25:27;;;;;;;;;;;;;;;;;;5091104;28;20303;-55
2022/11/18 14:27:54;;;;;;;;;;;;;;;;;;5106986;28;20026;-51
2022/11/18 14:30:25;;;;;;;;;;;;;;;;;;5099337;28;19924;-53
2022/11/18 14:33:03;;;;;;;;;;;;;;;;;;5100679;28;19924;-52
2022/11/18 14:35:30;;;;;;;;;;;;;;;;;;5107623;28;20332;-55
2022/11/18 15:41:17;;;;;;;;;;;;;;;;;;5071679;28;19931;-55
2022/11/18 15:43:44;;;;;;;;;;;;;;;;;;5067849;28;20348;-55
2022/11/18 15:46:12;;;;;;;;;;;;;;;;;;5068422;28;20579;-55
2022/11/18 15:48:38;;;;;;;;;;;;;;;;;;5052855;28;19967;-54
2022/11/18 15:51:05;;;;;;;;;;;;;;;;;;5052696;28;20467;-54
2022/11/18 15:53:32;;;;;;;;;;;;;;;;;;5053320;28;19948;-55
2022/11/18 15:56:13;;;;;;;;;;;;;;;;;;5061279;28;19985;-53
2022/11/18 15:58:42;;;;;;;;;;;;;;;;;;5063969;28;20297;-54
2022/11/18 16:01:09;;;;;;;;;;;;;;;;;;5053069;28;19955;-51
2022/11/18 16:03:36;;;;;;;;;;;;;;;;;;5053061;28;19957;-52
2022/11/18 16:06:02;;;;;;;;;;;;;;;;;;5053120;28;19925;-50
2022/11/18 16:08:30;;;;;;;;;;;;;;;;;;5062490;28;20532;-53
2022/11/18 16:13:43;;;;;;;;;;;;;;;;;;5069381;28;19932;-49
2022/11/18 16:16:17;;;;;;;;;;;;;;;;;;5063375;28;19952;-53
2022/11/18 16:18:44;;;;;;;;;;;;;;;;;;5052630;28;20011;-56
2022/11/18 16:21:11;;;;;;;;;;;;;;;;;;5051543;28;19928;-51
2022/11/18 16:23:38;;;;;;;;;;;;;;;;;;5052605;28;19931;-50
2022/11/18 16:26:05;;;;;;;;;;;;;;;;;;5059708;28;19925;-55
2022/11/18 16:28:31;;;;;;;;;;;;;;;;;;5053423;28;20015;-50
2022/11/18 16:33:44;;;;;;;;;;;;;;;;;;5052946;28;19988;-53
2022/11/18 16:36:10;;;;;;;;;;;;;;;;;;5059503;28;19928;-50
2022/11/18 16:38:37;;;;;;;;;;;;;;;;;;5071169;28;19932;-55
2022/11/18 16:41:30;;;;;;;;;;;;;;;;;;5069034;28;20332;-56
2022/11/18 16:43:51;;;;;;;;;;;;;;;;;;5061467;28;19931;-49
2022/11/18 16:46:19;;;;;;;;;;;;;;;;;;5070745;28;19935;-49
2022/11/18 16:48:46;;;;;;;;;;;;;;;;;;5052655;28;19932;-51
2022/11/18 16:51:18;;;;;;;;;;;;;;;;;;5052076;28;19932;-51
2022/11/18 16:53:49;;;;;;;;;;;;;;;;;;5052073;28;19932;-51
2022/11/18 16:56:16;;;;;;;;;;;;;;;;;;5051707;28;19976;-50
2022/11/18 16:58:42;;;;;;;;;;;;;;;;;;5052049;28;20400;-51
2022/11/18 17:01:09;;;;;;;;;;;;;;;;;;5052027;28;19929;-52
2022/11/18 17:03:38;;;;;;;;;;;;;;;;;;5062400;28;19978;-50
2022/11/18 17:06:05;;;;;;;;;;;;;;;;;;5071983;28;20299;-51
2022/11/18 17:08:33;;;;;;;;;;;;;;;;;;5069502;28;20290;-48
2022/11/18 17:11:03;;;;;;;;;;;;;;;;;;5071347;28;20019;-53
2022/11/18 17:13:30;;;;;;;;;;;;;;;;;;5071884;28;19985;-50
2022/11/18 17:15:57;;;;;;;;;;;;;;;;;;5060644;28;19924;-54
2022/11/18 17:18:24;;;;;;;;;;;;;;;;;;5057961;28;19924;-50
2022/11/18 17:20:53;;;;;;;;;;;;;;;;;;5070625;28;19958;-52
2022/11/18 17:23:19;;;;;;;;;;;;;;;;;;5068403;28;19925;-50
2022/11/18 17:25:46;;;;;;;;;;;;;;;;;;5067163;28;20008;-50
2022/11/18 17:28:12;;;;;;;;;;;;;;;;;;5062685;28;19932;-51
2022/11/18 17:30:39;;;;;;;;;;;;;;;;;;5057084;28;19924;-57
2022/11/18 17:33:06;;;;;;;;;;;;;;;;;;5051626;28;19925;-58
2022/11/18 17:35:32;;;;;;;;;;;;;;;;;;5055489;28;19995;-70
2022/11/18 17:38:00;;;;;;;;;;;;;;;;;;5065863;28;19986;-48
2022/11/18 17:40:27;;;;;;;;;;;;;;;;;;5070793;28;19929;-52
2022/11/18 17:42:54;;;;;;;;;;;;;;;;;;5057784;28;19925;-51
2022/11/18 17:45:21;;;;;;;;;;;;;;;;;;5055699;28;20262;-49
2022/11/18 17:47:48;;;;;;;;;;;;;;;;;;5059306;28;19925;-50
2022/11/18 17:50:15;;;;;;;;;;;;;;;;;;5055665;28;19971;-48
2022/11/18 17:52:41;;;;;;;;;;;;;;;;;;5058184;28;20535;-47
2022/11/18 17:55:10;;;;;;;;;;;;;;;;;;5056248;28;19924;-51
2022/11/18 17:57:36;;;;;;;;;;;;;;;;;;5054051;28;19943;-47
2022/11/18 18:00:04;;;;;;;;;;;;;;;;;;5061363;28;20305;-51
2022/11/18 18:02:30;;;;;;;;;;;;;;;;;;5062777;28;19932;-49
2022/11/18 18:04:57;;;;;;;;;;;;;;;;;;5051940;28;19955;-51
2022/11/18 18:07:24;;;;;;;;;;;;;;;;;;5056470;28;20581;-49
2022/11/18 18:09:50;;;;;;;;;;;;;;;;;;5070884;28;19929;-48
2022/11/18 18:15:03;;;;;;;;;;;;;;;;;;5070885;28;20070;-49
2022/11/18 18:17:30;;;;;;;;;;;;;;;;;;5064268;28;19994;-53
2022/11/18 18:19:56;;;;;;;;;;;;;;;;;;5050318;28;19925;-50
2022/11/18 18:22:23;;;;;;;;;;;;;;;;;;5051099;28;19932;-51
2022/11/18 18:24:50;;;;;;;;;;;;;;;;;;5050744;28;19932;-53
2022/11/18 18:27:16;;;;;;;;;;;;;;;;;;5050796;28;19924;-48
2022/11/18 18:29:44;;;;;;;;;;;;;;;;;;5050769;28;19928;-50
2022/11/18 18:32:11;;;;;;;;;;;;;;;;;;5052729;28;20015;-50